Huvudsida
METAR-TAF:

METAR-TAF

Flygplatser :

Verona-Villafrancas flygplats

Verona, Italien

latitud: 45-23N, longitud: 010-52E, höjd: 67 m

Aktuellt väderrapport

Denna rapport gjordes för 42 minuter sedan, klockan 03:20 UTC
Vind 2 kt varierande vindriktning
Temperatur 3°C
Fuktighet 100%
Tryck 1022 hPa
Sikt: 1500 m
grunt dimma

METAR: LIPX 190320Z VRB02KT 1500 R04/0650VP1500D MIFG NSC 03/03 Q1022

Tid: 05:02 (04:02 UTC)

Väderprognos

Denna rapport gjordes för 2 timmar och 2 minuter sedan, klockan 02:00 UTC
Prognos gäller från 19 kl. 03 UTC till 19 kl. 12 UTC
Vind 5 kt varierande vindriktning
Sikt: 1200 m
Spridda moln på en höjd av 1500 ft
fuktdis
Temporärt
från 19 kl. 03 UTC till 19 kl. 08 UTC
Sikt: 0600 m
Brutna moln på en höjd av 500 ft
dimma
Blir
från 19 kl. 08 UTC till 19 kl. 11 UTC
Vind 10 kt från väst
Sikt: 8000 m

TAF: LIPX 190200Z 1903/1912 VRB05KT 1200 BR SCT015 TEMPO 1903/1908 0600 FG BKN005 BECMG 1908/1911 28010KT 8000

Aktuella väderrapporter och prognoser från 4000 flygplatser (METAR- och TAF-rapporter).

De tillgängliga stationerna syns som gula och röda prickar på kartan.

För musen över prickarna för att se namnen på stationerna.

Klicka sedan för att få väderrapporter och prognoser.

För att ändra kartan: Klicka på de gröna knapparna med ett svart kors på för att zooma in; den gröna knappen med ett streck på för att zooma ut; eller på de gröna pilarna för angränsande kartor.


METAR-TAF: